VHM weather

Vilhelmina Airport
Västerbottens län, Sweden

Public forecast

Using degrees Celsius for public forecast. Weather courtesy of forecast.io.

METAR (pilot weather report)

Retrieved 2019/08/19 22:20 UTC (30 minutes ago):

ESNV 192220Z AUTO 19006KT 9999 NCD 10/08 Q1002

TAF (pilot weather forecast)

Forecast is more than 12 hours old.

Closest forecast is Hemavan Airport, 85.9 nm (159.0 km) NNW. Retrieved 2009/10/12 22:40 UTC (10 years ago):

TAF TAF LTCC 122240Z 13 SASN33 ESWI 130020 RRA METAR ESUT 130020Z AUTO 00000KT 9999NDV NCD M08/M10 Q1022